Terminal Aerodrome Forecast
Issued by NWS

Home | Current Version | Previous Version | Text Only | Print | Product List | Glossary On
Versions: 1 2 3 4 5 6 7 8 9 10 11 12 13 14 15 16 17 18 19 20 21
661
FTAK31 PAJN 270520
TAFASI
TAF
PASI 270520Z 2706/2806 VRB05KT 6SM BR VCSH BKN010 OVC025
     FM271500 14008KT 4SM -RA BR FEW005 BKN015 OVC025
     FM272000 15009KT 4SM -RA BKN004 OVC015
     FM280300 18008KT 6SM -RA BR OVC015=

USA.gov is the U.S. government's official web portal to all federal, state and local government web resources and services.